sensor_id;sensor_type;location;lat;lon;timestamp;P1;durP1;ratioP1;P2;durP2;ratioP2
22425;SDS011;11380;50.822;15.790;2022-08-03T00:02:56;54.47;;;49.67;;
22425;SDS011;11380;50.822;15.790;2022-08-03T00:08:01;53.90;;;49.23;;
22425;SDS011;11380;50.822;15.790;2022-08-03T00:13:06;54.90;;;50.00;;
22425;SDS011;11380;50.822;15.790;2022-08-03T00:18:12;54.00;;;49.40;;
22425;SDS011;11380;50.822;15.790;2022-08-03T00:23:18;53.60;;;48.95;;
22425;SDS011;11380;50.822;15.790;2022-08-03T00:28:23;54.00;;;49.30;;
22425;SDS011;11380;50.822;15.790;2022-08-03T00:33:29;53.37;;;48.73;;
22425;SDS011;11380;50.822;15.790;2022-08-03T00:38:38;53.77;;;49.17;;
22425;SDS011;11380;50.822;15.790;2022-08-03T00:43:43;53.70;;;49.10;;
22425;SDS011;11380;50.822;15.790;2022-08-03T00:53:55;53.00;;;48.50;;
22425;SDS011;11380;50.822;15.790;2022-08-03T00:59:02;53.42;;;48.92;;
22425;SDS011;11380;50.822;15.790;2022-08-03T01:04:08;53.80;;;49.07;;
22425;SDS011;11380;50.822;15.790;2022-08-03T01:15:14;53.27;;;48.70;;
22425;SDS011;11380;50.822;15.790;2022-08-03T01:30:37;53.93;;;49.33;;
22425;SDS011;11380;50.822;15.790;2022-08-03T01:36:01;53.43;;;48.93;;
22425;SDS011;11380;50.822;15.790;2022-08-03T01:41:11;53.60;;;48.70;;
22425;SDS011;11380;50.822;15.790;2022-08-03T01:46:17;53.00;;;48.40;;
22425;SDS011;11380;50.822;15.790;2022-08-03T01:51:24;53.47;;;48.87;;
22425;SDS011;11380;50.822;15.790;2022-08-03T01:56:31;54.10;;;49.47;;
22425;SDS011;11380;50.822;15.790;2022-08-03T02:01:37;53.40;;;48.80;;
22425;SDS011;11380;50.822;15.790;2022-08-03T02:06:45;53.80;;;49.10;;
22425;SDS011;11380;50.822;15.790;2022-08-03T02:11:54;53.57;;;48.87;;
22425;SDS011;11380;50.822;15.790;2022-08-03T02:17:00;53.20;;;48.60;;
22425;SDS011;11380;50.822;15.790;2022-08-03T02:22:07;52.90;;;48.40;;
22425;SDS011;11380;50.822;15.790;2022-08-03T02:27:19;53.37;;;48.87;;
22425;SDS011;11380;50.822;15.790;2022-08-03T02:32:33;54.27;;;49.60;;
22425;SDS011;11380;50.822;15.790;2022-08-03T02:37:43;52.97;;;48.53;;
22425;SDS011;11380;50.822;15.790;2022-08-03T02:42:54;53.67;;;48.97;;
22425;SDS011;11380;50.822;15.790;2022-08-03T02:48:03;53.13;;;48.63;;
22425;SDS011;11380;50.822;15.790;2022-08-03T02:53:11;53.53;;;49.03;;
22425;SDS011;11380;50.822;15.790;2022-08-03T02:58:22;53.67;;;48.97;;
22425;SDS011;11380;50.822;15.790;2022-08-03T03:03:28;53.77;;;49.10;;
22425;SDS011;11380;50.822;15.790;2022-08-03T03:08:35;54.00;;;49.40;;
22425;SDS011;11380;50.822;15.790;2022-08-03T03:13:42;53.63;;;49.08;;
22425;SDS011;11380;50.822;15.790;2022-08-03T03:18:49;53.37;;;48.77;;
22425;SDS011;11380;50.822;15.790;2022-08-03T03:23:54;53.57;;;48.93;;
22425;SDS011;11380;50.822;15.790;2022-08-03T03:29:01;53.87;;;49.18;;
22425;SDS011;11380;50.822;15.790;2022-08-03T03:39:13;52.80;;;48.38;;
22425;SDS011;11380;50.822;15.790;2022-08-03T03:44:19;53.40;;;48.70;;
22425;SDS011;11380;50.822;15.790;2022-08-03T03:49:25;53.30;;;48.83;;
22425;SDS011;11380;50.822;15.790;2022-08-03T03:54:43;52.90;;;48.45;;
22425;SDS011;11380;50.822;15.790;2022-08-03T03:59:49;54.03;;;49.30;;
22425;SDS011;11380;50.822;15.790;2022-08-03T04:04:54;53.40;;;48.87;;
22425;SDS011;11380;50.822;15.790;2022-08-03T04:10:20;53.05;;;48.55;;
22425;SDS011;11380;50.822;15.790;2022-08-03T04:20:50;53.95;;;49.15;;
22425;SDS011;11380;50.822;15.790;2022-08-03T04:31:02;53.40;;;48.85;;
22425;SDS011;11380;50.822;15.790;2022-08-03T04:36:10;53.70;;;49.07;;
22425;SDS011;11380;50.822;15.790;2022-08-03T04:41:19;54.17;;;49.47;;
22425;SDS011;11380;50.822;15.790;2022-08-03T04:46:33;54.50;;;49.87;;
22425;SDS011;11380;50.822;15.790;2022-08-03T04:51:42;53.90;;;49.25;;
22425;SDS011;11380;50.822;15.790;2022-08-03T04:56:48;54.80;;;50.10;;
22425;SDS011;11380;50.822;15.790;2022-08-03T05:01:53;54.63;;;49.93;;
22425;SDS011;11380;50.822;15.790;2022-08-03T05:07:00;55.08;;;50.28;;
22425;SDS011;11380;50.822;15.790;2022-08-03T05:12:07;55.93;;;51.00;;
22425;SDS011;11380;50.822;15.790;2022-08-03T05:22:18;56.15;;;51.15;;
22425;SDS011;11380;50.822;15.790;2022-08-03T05:32:29;55.83;;;50.90;;
22425;SDS011;11380;50.822;15.790;2022-08-03T05:37:34;56.97;;;51.83;;
22425;SDS011;11380;50.822;15.790;2022-08-03T05:42:39;58.55;;;52.62;;
22425;SDS011;11380;50.822;15.790;2022-08-03T05:47:45;56.53;;;51.47;;
22425;SDS011;11380;50.822;15.790;2022-08-03T05:52:53;56.63;;;51.35;;
22425;SDS011;11380;50.822;15.790;2022-08-03T05:58:01;59.40;;;53.70;;
22425;SDS011;11380;50.822;15.790;2022-08-03T06:03:06;57.20;;;51.90;;
22425;SDS011;11380;50.822;15.790;2022-08-03T06:08:14;57.20;;;51.83;;
22425;SDS011;11380;50.822;15.790;2022-08-03T06:13:20;57.33;;;52.03;;
22425;SDS011;11380;50.822;15.790;2022-08-03T06:18:25;57.85;;;52.38;;
22425;SDS011;11380;50.822;15.790;2022-08-03T06:23:31;57.47;;;52.17;;
22425;SDS011;11380;50.822;15.790;2022-08-03T06:28:38;56.92;;;51.55;;
22425;SDS011;11380;50.822;15.790;2022-08-03T06:33:45;57.03;;;51.83;;
22425;SDS011;11380;50.822;15.790;2022-08-03T06:38:53;58.75;;;53.28;;
22425;SDS011;11380;50.822;15.790;2022-08-03T06:43:59;57.13;;;51.90;;
22425;SDS011;11380;50.822;15.790;2022-08-03T06:49:06;57.80;;;52.17;;
22425;SDS011;11380;50.822;15.790;2022-08-03T06:54:12;57.00;;;51.80;;
22425;SDS011;11380;50.822;15.790;2022-08-03T06:59:17;57.80;;;52.10;;
22425;SDS011;11380;50.822;15.790;2022-08-03T07:04:24;58.03;;;52.43;;
22425;SDS011;11380;50.822;15.790;2022-08-03T07:09:29;58.67;;;53.17;;
22425;SDS011;11380;50.822;15.790;2022-08-03T07:14:34;59.07;;;53.57;;
22425;SDS011;11380;50.822;15.790;2022-08-03T07:19:40;59.25;;;53.60;;
22425;SDS011;11380;50.822;15.790;2022-08-03T07:24:46;58.90;;;53.27;;
22425;SDS011;11380;50.822;15.790;2022-08-03T07:29:52;60.00;;;54.10;;
22425;SDS011;11380;50.822;15.790;2022-08-03T07:34:58;59.53;;;53.87;;
22425;SDS011;11380;50.822;15.790;2022-08-03T07:40:06;59.47;;;53.77;;
22425;SDS011;11380;50.822;15.790;2022-08-03T07:45:12;60.76;;;54.86;;
22425;SDS011;11380;50.822;15.790;2022-08-03T07:50:19;59.23;;;53.53;;
22425;SDS011;11380;50.822;15.790;2022-08-03T07:55:25;59.10;;;53.00;;
22425;SDS011;11380;50.822;15.790;2022-08-03T08:00:32;58.70;;;53.13;;
22425;SDS011;11380;50.822;15.790;2022-08-03T08:10:42;58.40;;;52.80;;
22425;SDS011;11380;50.822;15.790;2022-08-03T08:15:49;58.77;;;53.17;;
22425;SDS011;11380;50.822;15.790;2022-08-03T08:20:55;58.02;;;52.33;;
22425;SDS011;11380;50.822;15.790;2022-08-03T08:26:01;58.73;;;53.13;;
22425;SDS011;11380;50.822;15.790;2022-08-03T08:31:07;59.00;;;53.33;;
22425;SDS011;11380;50.822;15.790;2022-08-03T08:36:13;59.53;;;53.63;;
22425;SDS011;11380;50.822;15.790;2022-08-03T08:41:19;60.03;;;54.27;;
22425;SDS011;11380;50.822;15.790;2022-08-03T08:46:24;60.27;;;54.47;;
22425;SDS011;11380;50.822;15.790;2022-08-03T08:56:39;59.45;;;53.75;;
22425;SDS011;11380;50.822;15.790;2022-08-03T09:01:44;59.70;;;53.87;;
22425;SDS011;11380;50.822;15.790;2022-08-03T09:06:51;60.13;;;54.10;;
22425;SDS011;11380;50.822;15.790;2022-08-03T09:11:59;60.10;;;54.30;;
22425;SDS011;11380;50.822;15.790;2022-08-03T09:17:06;60.00;;;54.03;;
22425;SDS011;11380;50.822;15.790;2022-08-03T09:22:15;59.27;;;53.67;;
22425;SDS011;11380;50.822;15.790;2022-08-03T09:27:21;59.70;;;53.90;;
22425;SDS011;11380;50.822;15.790;2022-08-03T09:32:28;59.67;;;53.97;;
22425;SDS011;11380;50.822;15.790;2022-08-03T09:37:35;59.95;;;54.05;;
22425;SDS011;11380;50.822;15.790;2022-08-03T09:42:54;60.50;;;54.20;;
22425;SDS011;11380;50.822;15.790;2022-08-03T09:47:51;59.77;;;54.05;;
22425;SDS011;11380;50.822;15.790;2022-08-03T09:52:56;60.27;;;54.40;;
22425;SDS011;11380;50.822;15.790;2022-08-03T09:58:06;59.80;;;54.00;;
22425;SDS011;11380;50.822;15.790;2022-08-03T10:03:13;60.30;;;54.50;;
22425;SDS011;11380;50.822;15.790;2022-08-03T10:08:19;59.98;;;54.27;;
22425;SDS011;11380;50.822;15.790;2022-08-03T10:13:25;60.20;;;54.30;;
22425;SDS011;11380;50.822;15.790;2022-08-03T10:18:31;59.90;;;54.13;;
22425;SDS011;11380;50.822;15.790;2022-08-03T10:23:37;60.13;;;54.37;;
22425;SDS011;11380;50.822;15.790;2022-08-03T10:28:48;59.73;;;54.03;;
22425;SDS011;11380;50.822;15.790;2022-08-03T10:33:55;59.95;;;54.15;;
22425;SDS011;11380;50.822;15.790;2022-08-03T10:39:03;60.00;;;54.20;;
22425;SDS011;11380;50.822;15.790;2022-08-03T10:44:16;59.90;;;54.20;;
22425;SDS011;11380;50.822;15.790;2022-08-03T10:49:18;60.13;;;54.33;;
22425;SDS011;11380;50.822;15.790;2022-08-03T10:54:38;60.20;;;54.30;;
22425;SDS011;11380;50.822;15.790;2022-08-03T11:00:05;60.40;;;54.43;;
22425;SDS011;11380;50.822;15.790;2022-08-03T11:05:30;59.76;;;54.04;;
22425;SDS011;11380;50.822;15.790;2022-08-03T11:10:31;60.33;;;54.43;;
22425;SDS011;11380;50.822;15.790;2022-08-03T11:15:37;60.67;;;54.80;;
22425;SDS011;11380;50.822;15.790;2022-08-03T11:20:44;60.90;;;54.97;;
22425;SDS011;11380;50.822;15.790;2022-08-03T11:26:07;61.33;;;55.33;;
22425;SDS011;11380;50.822;15.790;2022-08-03T11:47:34;60.30;;;54.40;;
22425;SDS011;11380;50.822;15.790;2022-08-03T11:52:42;61.47;;;55.57;;
22425;SDS011;11380;50.822;15.790;2022-08-03T11:57:47;60.97;;;55.07;;
22425;SDS011;11380;50.822;15.790;2022-08-03T12:02:55;60.87;;;54.97;;
22425;SDS011;11380;50.822;15.790;2022-08-03T12:08:07;60.20;;;54.43;;
22425;SDS011;11380;50.822;15.790;2022-08-03T12:13:13;60.65;;;54.75;;
22425;SDS011;11380;50.822;15.790;2022-08-03T12:18:20;61.37;;;55.48;;
22425;SDS011;11380;50.822;15.790;2022-08-03T12:23:28;60.90;;;54.70;;
22425;SDS011;11380;50.822;15.790;2022-08-03T12:28:35;61.40;;;55.45;;
22425;SDS011;11380;50.822;15.790;2022-08-03T12:39:06;61.03;;;55.17;;
22425;SDS011;11380;50.822;15.790;2022-08-03T12:44:13;60.97;;;55.07;;
22425;SDS011;11380;50.822;15.790;2022-08-03T12:49:19;60.87;;;54.97;;
22425;SDS011;11380;50.822;15.790;2022-08-03T12:54:26;61.77;;;55.63;;
22425;SDS011;11380;50.822;15.790;2022-08-03T12:59:44;61.05;;;55.05;;
22425;SDS011;11380;50.822;15.790;2022-08-03T13:04:50;61.20;;;55.30;;
22425;SDS011;11380;50.822;15.790;2022-08-03T13:09:56;60.90;;;55.00;;
22425;SDS011;11380;50.822;15.790;2022-08-03T13:15:04;61.03;;;55.03;;
22425;SDS011;11380;50.822;15.790;2022-08-03T13:20:11;61.30;;;55.40;;
22425;SDS011;11380;50.822;15.790;2022-08-03T13:25:16;60.93;;;55.13;;
22425;SDS011;11380;50.822;15.790;2022-08-03T13:30:23;61.20;;;55.30;;
22425;SDS011;11380;50.822;15.790;2022-08-03T13:35:30;61.03;;;55.20;;
22425;SDS011;11380;50.822;15.790;2022-08-03T13:40:35;60.83;;;54.97;;
22425;SDS011;11380;50.822;15.790;2022-08-03T13:45:42;60.40;;;54.60;;
22425;SDS011;11380;50.822;15.790;2022-08-03T13:50:48;60.45;;;54.45;;
22425;SDS011;11380;50.822;15.790;2022-08-03T13:55:54;61.07;;;54.97;;
22425;SDS011;11380;50.822;15.790;2022-08-03T14:01:00;60.83;;;55.00;;
22425;SDS011;11380;50.822;15.790;2022-08-03T14:06:06;61.00;;;55.10;;
22425;SDS011;11380;50.822;15.790;2022-08-03T14:11:11;60.90;;;54.83;;
22425;SDS011;11380;50.822;15.790;2022-08-03T14:16:17;60.90;;;55.07;;
22425;SDS011;11380;50.822;15.790;2022-08-03T14:21:24;60.55;;;54.75;;
22425;SDS011;11380;50.822;15.790;2022-08-03T14:26:29;61.00;;;55.00;;
22425;SDS011;11380;50.822;15.790;2022-08-03T14:31:35;60.70;;;54.83;;
22425;SDS011;11380;50.822;15.790;2022-08-03T14:36:43;60.80;;;54.97;;
22425;SDS011;11380;50.822;15.790;2022-08-03T14:41:49;61.30;;;55.10;;
22425;SDS011;11380;50.822;15.790;2022-08-03T14:46:55;61.20;;;55.30;;
22425;SDS011;11380;50.822;15.790;2022-08-03T14:52:00;61.00;;;55.17;;
22425;SDS011;11380;50.822;15.790;2022-08-03T14:57:06;60.83;;;55.00;;
22425;SDS011;11380;50.822;15.790;2022-08-03T15:02:12;61.07;;;55.17;;
22425;SDS011;11380;50.822;15.790;2022-08-03T15:07:21;60.37;;;54.57;;
22425;SDS011;11380;50.822;15.790;2022-08-03T15:12:27;60.60;;;54.80;;
22425;SDS011;11380;50.822;15.790;2022-08-03T15:17:33;61.27;;;55.37;;
22425;SDS011;11380;50.822;15.790;2022-08-03T15:22:38;61.30;;;55.30;;
22425;SDS011;11380;50.822;15.790;2022-08-03T15:27:44;60.20;;;54.20;;
22425;SDS011;11380;50.822;15.790;2022-08-03T15:32:51;60.43;;;54.63;;
22425;SDS011;11380;50.822;15.790;2022-08-03T15:37:57;60.20;;;54.47;;
22425;SDS011;11380;50.822;15.790;2022-08-03T15:43:02;60.00;;;54.30;;
22425;SDS011;11380;50.822;15.790;2022-08-03T15:53:12;60.03;;;54.20;;
22425;SDS011;11380;50.822;15.790;2022-08-03T15:58:18;60.17;;;54.40;;
22425;SDS011;11380;50.822;15.790;2022-08-03T16:03:25;60.83;;;54.83;;
22425;SDS011;11380;50.822;15.790;2022-08-03T16:08:31;60.15;;;54.30;;
22425;SDS011;11380;50.822;15.790;2022-08-03T16:13:37;60.60;;;54.60;;
22425;SDS011;11380;50.822;15.790;2022-08-03T16:18:45;60.30;;;54.53;;
22425;SDS011;11380;50.822;15.790;2022-08-03T16:23:50;60.05;;;54.30;;
22425;SDS011;11380;50.822;15.790;2022-08-03T16:28:56;60.70;;;54.80;;
22425;SDS011;11380;50.822;15.790;2022-08-03T16:34:01;60.27;;;54.47;;
22425;SDS011;11380;50.822;15.790;2022-08-03T16:39:07;60.50;;;54.70;;
22425;SDS011;11380;50.822;15.790;2022-08-03T16:44:13;60.70;;;54.70;;
22425;SDS011;11380;50.822;15.790;2022-08-03T16:49:18;60.40;;;54.47;;
22425;SDS011;11380;50.822;15.790;2022-08-03T16:54:26;60.27;;;54.47;;
22425;SDS011;11380;50.822;15.790;2022-08-03T16:59:32;60.43;;;54.57;;
22425;SDS011;11380;50.822;15.790;2022-08-03T17:04:39;60.48;;;54.63;;
22425;SDS011;11380;50.822;15.790;2022-08-03T17:09:46;60.50;;;54.50;;
22425;SDS011;11380;50.822;15.790;2022-08-03T17:14:52;59.90;;;54.17;;
22425;SDS011;11380;50.822;15.790;2022-08-03T17:19:58;60.67;;;54.57;;
22425;SDS011;11380;50.822;15.790;2022-08-03T17:25:07;60.93;;;55.03;;
22425;SDS011;11380;50.822;15.790;2022-08-03T17:30:14;60.40;;;54.45;;
22425;SDS011;11380;50.822;15.790;2022-08-03T17:35:21;60.40;;;54.60;;
22425;SDS011;11380;50.822;15.790;2022-08-03T17:40:28;59.55;;;53.90;;
22425;SDS011;11380;50.822;15.790;2022-08-03T17:45:34;59.60;;;53.77;;
22425;SDS011;11380;50.822;15.790;2022-08-03T17:50:45;60.33;;;54.43;;
22425;SDS011;11380;50.822;15.790;2022-08-03T17:55:57;60.10;;;54.23;;
22425;SDS011;11380;50.822;15.790;2022-08-03T18:01:13;59.60;;;53.90;;
22425;SDS011;11380;50.822;15.790;2022-08-03T18:06:38;59.90;;;54.18;;
22425;SDS011;11380;50.822;15.790;2022-08-03T18:11:50;59.87;;;54.07;;
22425;SDS011;11380;50.822;15.790;2022-08-03T18:17:00;59.60;;;53.90;;
22425;SDS011;11380;50.822;15.790;2022-08-03T18:22:07;59.20;;;53.50;;
22425;SDS011;11380;50.822;15.790;2022-08-03T18:27:14;58.77;;;53.07;;
22425;SDS011;11380;50.822;15.790;2022-08-03T18:32:22;59.08;;;53.28;;
22425;SDS011;11380;50.822;15.790;2022-08-03T18:37:30;59.23;;;53.60;;
22425;SDS011;11380;50.822;15.790;2022-08-03T18:42:38;59.10;;;53.40;;
22425;SDS011;11380;50.822;15.790;2022-08-03T18:47:52;58.73;;;52.97;;
22425;SDS011;11380;50.822;15.790;2022-08-03T18:53:08;58.83;;;53.23;;
22425;SDS011;11380;50.822;15.790;2022-08-03T18:58:26;59.00;;;53.30;;
22425;SDS011;11380;50.822;15.790;2022-08-03T19:03:33;62.63;;;53.80;;
22425;SDS011;11380;50.822;15.790;2022-08-03T19:09:21;59.50;;;53.90;;
22425;SDS011;11380;50.822;15.790;2022-08-03T19:14:01;58.10;;;52.60;;
22425;SDS011;11380;50.822;15.790;2022-08-03T19:19:11;58.70;;;53.10;;
22425;SDS011;11380;50.822;15.790;2022-08-03T19:24:19;58.40;;;52.90;;
22425;SDS011;11380;50.822;15.790;2022-08-03T19:29:28;58.38;;;52.85;;
22425;SDS011;11380;50.822;15.790;2022-08-03T19:34:37;59.00;;;53.00;;
22425;SDS011;11380;50.822;15.790;2022-08-03T19:39:46;58.40;;;52.83;;
22425;SDS011;11380;50.822;15.790;2022-08-03T19:45:04;58.43;;;52.63;;
22425;SDS011;11380;50.822;15.790;2022-08-03T19:50:07;57.27;;;51.77;;
22425;SDS011;11380;50.822;15.790;2022-08-03T19:55:16;57.40;;;52.00;;
22425;SDS011;11380;50.822;15.790;2022-08-03T20:00:23;57.17;;;51.77;;
22425;SDS011;11380;50.822;15.790;2022-08-03T20:05:30;57.50;;;52.00;;
22425;SDS011;11380;50.822;15.790;2022-08-03T20:10:38;57.50;;;52.10;;
22425;SDS011;11380;50.822;15.790;2022-08-03T20:15:44;58.40;;;52.93;;
22425;SDS011;11380;50.822;15.790;2022-08-03T20:20:51;59.23;;;53.33;;
22425;SDS011;11380;50.822;15.790;2022-08-03T20:25:59;59.03;;;53.47;;
22425;SDS011;11380;50.822;15.790;2022-08-03T20:31:06;57.47;;;52.17;;
22425;SDS011;11380;50.822;15.790;2022-08-03T20:36:14;57.70;;;52.30;;
22425;SDS011;11380;50.822;15.790;2022-08-03T20:41:21;57.15;;;51.77;;
22425;SDS011;11380;50.822;15.790;2022-08-03T20:46:27;58.10;;;52.62;;
22425;SDS011;11380;50.822;15.790;2022-08-03T20:51:35;57.47;;;52.00;;
22425;SDS011;11380;50.822;15.790;2022-08-03T20:56:42;57.10;;;51.70;;
22425;SDS011;11380;50.822;15.790;2022-08-03T21:01:48;57.55;;;52.15;;
22425;SDS011;11380;50.822;15.790;2022-08-03T21:06:57;56.93;;;51.63;;
22425;SDS011;11380;50.822;15.790;2022-08-03T21:12:04;56.43;;;51.20;;
22425;SDS011;11380;50.822;15.790;2022-08-03T21:17:14;57.93;;;52.43;;
22425;SDS011;11380;50.822;15.790;2022-08-03T21:22:24;56.87;;;51.67;;
22425;SDS011;11380;50.822;15.790;2022-08-03T21:27:31;56.90;;;51.60;;
22425;SDS011;11380;50.822;15.790;2022-08-03T21:32:37;56.30;;;51.10;;
22425;SDS011;11380;50.822;15.790;2022-08-03T21:37:44;56.92;;;51.42;;
22425;SDS011;11380;50.822;15.790;2022-08-03T21:42:52;58.27;;;52.67;;
22425;SDS011;11380;50.822;15.790;2022-08-03T21:47:57;58.23;;;52.50;;
22425;SDS011;11380;50.822;15.790;2022-08-03T21:53:03;58.25;;;52.83;;
22425;SDS011;11380;50.822;15.790;2022-08-03T21:58:10;58.37;;;52.53;;
22425;SDS011;11380;50.822;15.790;2022-08-03T22:03:21;58.23;;;52.55;;
22425;SDS011;11380;50.822;15.790;2022-08-03T22:08:27;58.73;;;53.17;;
22425;SDS011;11380;50.822;15.790;2022-08-03T22:13:34;57.57;;;52.30;;
22425;SDS011;11380;50.822;15.790;2022-08-03T22:18:43;57.20;;;51.87;;
22425;SDS011;11380;50.822;15.790;2022-08-03T22:23:49;57.17;;;51.97;;
22425;SDS011;11380;50.822;15.790;2022-08-03T22:28:57;56.77;;;51.60;;
22425;SDS011;11380;50.822;15.790;2022-08-03T22:34:04;56.80;;;51.40;;
22425;SDS011;11380;50.822;15.790;2022-08-03T22:39:10;55.93;;;50.73;;
22425;SDS011;11380;50.822;15.790;2022-08-03T22:44:18;55.76;;;50.68;;
22425;SDS011;11380;50.822;15.790;2022-08-03T22:49:25;55.93;;;50.83;;
22425;SDS011;11380;50.822;15.790;2022-08-03T22:54:31;55.77;;;50.77;;
22425;SDS011;11380;50.822;15.790;2022-08-03T22:59:38;55.90;;;50.63;;
22425;SDS011;11380;50.822;15.790;2022-08-03T23:04:47;55.77;;;50.77;;
22425;SDS011;11380;50.822;15.790;2022-08-03T23:09:55;56.28;;;50.78;;
22425;SDS011;11380;50.822;15.790;2022-08-03T23:15:02;55.43;;;50.50;;
22425;SDS011;11380;50.822;15.790;2022-08-03T23:20:10;55.23;;;50.33;;
22425;SDS011;11380;50.822;15.790;2022-08-03T23:25:18;55.77;;;50.50;;
22425;SDS011;11380;50.822;15.790;2022-08-03T23:30:24;54.50;;;49.67;;
22425;SDS011;11380;50.822;15.790;2022-08-03T23:35:31;55.27;;;50.27;;
22425;SDS011;11380;50.822;15.790;2022-08-03T23:40:57;55.33;;;50.40;;
22425;SDS011;11380;50.822;15.790;2022-08-03T23:46:05;54.63;;;49.77;;
22425;SDS011;11380;50.822;15.790;2022-08-03T23:51:12;55.30;;;50.30;;
22425;SDS011;11380;50.822;15.790;2022-08-03T23:56:44;54.13;;;49.33;;
